Time;durP1;ratioP1;P1;durP2;ratioP2;P2;SDS_P1;SDS_P2;PMS_P1;PMS_P2;Temp;Humidity;BMP_temperature;BMP_pressure;BME280_temperature;BME280_humidity;BME280_pressure;Samples;Min_cycle;Max_cycle;Signal;HPM_P1;HPM_P2
2022/04/20 00:00:16;;;;;;;12.68;5.40;;;9.60;99.90;;;;;;4903010;29;20404;-79
2022/04/20 00:02:42;;;;;;;11.70;4.95;;;9.60;99.90;;;;;;4919883;29;20048;-80
2022/04/20 00:05:08;;;;;;;11.70;4.97;;;9.60;99.90;;;;;;4919817;29;20044;-80
2022/04/20 00:07:33;;;;;;;11.40;4.60;;;9.60;99.90;;;;;;4902995;29;20059;-80
2022/04/20 00:09:59;;;;;;;10.25;4.47;;;9.60;99.90;;;;;;4919447;29;20060;-80
2022/04/20 00:12:26;;;;;;;12.10;4.68;;;9.60;99.90;;;;;;4919592;29;20067;-80
2022/04/20 00:14:51;;;;;;;10.27;5.03;;;9.50;99.90;;;;;;4902711;29;20131;-81
2022/04/20 00:17:17;;;;;;;8.95;4.35;;;9.50;99.90;;;;;;4902647;29;20126;-80
2022/04/20 00:19:43;;;;;;;15.45;4.85;;;9.40;99.90;;;;;;4902781;29;20099;-80
2022/04/20 00:22:08;;;;;;;11.07;4.40;;;9.50;99.90;;;;;;4919601;29;20044;-81
2022/04/20 00:24:34;;;;;;;12.57;4.70;;;9.40;99.90;;;;;;4902578;29;20048;-80
2022/04/20 00:27:00;;;;;;;8.60;4.10;;;9.40;99.90;;;;;;4919101;29;20060;-80
2022/04/20 00:29:25;;;;;;;12.68;5.18;;;9.30;99.90;;;;;;4902537;29;20052;-79
2022/04/20 00:31:51;;;;;;;10.93;4.60;;;9.30;99.90;;;;;;4902346;29;20492;-79
2022/04/20 00:34:17;;;;;;;13.18;5.28;;;9.30;99.90;;;;;;4902429;29;20044;-79
2022/04/20 00:36:42;;;;;;;8.68;4.97;;;9.20;99.90;;;;;;4902479;29;20044;-80
2022/04/20 00:39:08;;;;;;;13.77;4.68;;;9.20;99.90;;;;;;4902073;29;20044;-80
2022/04/20 00:41:34;;;;;;;10.88;5.03;;;9.10;99.90;;;;;;4918928;29;20060;-79
2022/04/20 00:44:01;;;;;;;13.73;4.80;;;9.10;99.90;;;;;;4901997;29;20127;-79
2022/04/20 00:46:31;;;;;;;13.05;5.35;;;9.10;99.90;;;;;;4902187;29;20059;-80
2022/04/20 00:48:57;;;;;;;13.68;5.28;;;9.00;99.90;;;;;;4902397;29;20099;-79
2022/04/20 00:51:22;;;;;;;11.48;4.97;;;9.00;99.90;;;;;;4901798;29;20408;-80
2022/04/20 00:53:48;;;;;;;10.60;4.50;;;9.00;99.90;;;;;;4901951;29;20054;-79
2022/04/20 00:56:14;;;;;;;11.68;5.25;;;9.00;99.90;;;;;;4902067;29;20052;-79
2022/04/20 00:58:41;;;;;;;10.18;5.10;;;8.90;99.90;;;;;;4902070;29;20044;-80
2022/04/20 01:01:08;;;;;;;11.23;5.15;;;8.90;99.90;;;;;;4901821;29;20107;-79
2022/04/20 01:03:34;;;;;;;13.38;5.03;;;8.80;99.90;;;;;;4918603;29;20560;-79
2022/04/20 01:05:59;;;;;;;10.63;4.75;;;8.80;99.90;;;;;;4901408;29;20048;-79
2022/04/20 01:08:25;;;;;;;12.88;5.03;;;8.80;99.90;;;;;;4886015;29;20112;-79
2022/04/20 01:10:51;;;;;;;14.35;4.60;;;8.70;99.90;;;;;;4918667;29;20056;-79
2022/04/20 01:13:17;;;;;;;11.07;4.97;;;8.70;99.90;;;;;;4901528;29;20063;-80
2022/04/20 01:15:42;;;;;;;13.90;5.82;;;8.70;99.90;;;;;;4901535;29;20036;-79
2022/04/20 01:18:13;;;;;;;11.38;5.50;;;8.60;99.90;;;;;;4918584;29;20131;-79
2022/04/20 01:20:39;;;;;;;8.93;5.03;;;8.50;99.90;;;;;;4901524;29;20044;-79
2022/04/20 01:23:05;;;;;;;11.80;5.47;;;8.50;99.90;;;;;;4901804;29;20052;-79
2022/04/20 01:25:30;;;;;;;12.55;4.97;;;8.50;99.90;;;;;;4918247;29;20055;-79
2022/04/20 01:27:56;;;;;;;12.57;5.15;;;8.50;99.90;;;;;;4901311;29;20528;-80
2022/04/20 01:30:22;;;;;;;10.20;5.30;;;8.40;99.90;;;;;;4918445;29;20555;-80
2022/04/20 01:32:48;;;;;;;11.68;5.28;;;8.40;99.90;;;;;;4918382;29;20052;-79
2022/04/20 01:35:13;;;;;;;10.55;5.32;;;8.40;99.90;;;;;;4918038;29;20048;-80
2022/04/20 01:37:39;;;;;;;10.60;6.15;;;8.40;99.90;;;;;;4901370;29;20146;-79
2022/04/20 01:40:05;;;;;;;9.15;4.78;;;8.30;99.90;;;;;;4901046;29;20052;-80
2022/04/20 01:42:32;;;;;;;12.57;5.00;;;8.30;99.90;;;;;;4908769;23;20113;-75
2022/04/20 01:45:00;;;;;;;12.18;6.03;;;8.30;99.90;;;;;;4863968;29;20088;-75
2022/04/20 01:47:26;;;;;;;12.63;5.97;;;8.30;99.90;;;;;;4880395;29;20126;-75
2022/04/20 01:49:52;;;;;;;11.35;5.18;;;8.30;99.90;;;;;;4863766;29;20105;-75
2022/04/20 01:52:18;;;;;;;18.17;5.35;;;8.20;99.90;;;;;;4880252;29;20450;-75
2022/04/20 01:54:43;;;;;;;10.55;4.78;;;8.20;99.90;;;;;;4880764;29;20060;-75
2022/04/20 01:57:09;;;;;;;13.20;5.70;;;8.10;99.90;;;;;;4880093;29;20487;-75
2022/04/20 01:59:35;;;;;;;9.13;4.90;;;8.10;99.90;;;;;;4863474;29;20052;-75
2022/04/20 02:04:45;;;;;;;14.57;5.20;;;8.10;99.90;;;;;;4863576;29;20108;-75
2022/04/20 02:07:11;;;;;;;11.57;4.85;;;8.00;99.90;;;;;;4863643;29;20060;-75
2022/04/20 02:09:37;;;;;;;14.38;5.22;;;8.00;99.90;;;;;;4863670;29;20056;-75
2022/04/20 02:12:02;;;;;;;11.65;5.55;;;7.90;99.90;;;;;;4863318;29;20056;-75
2022/04/20 02:14:28;;;;;;;11.30;5.72;;;7.90;99.90;;;;;;4863310;29;20048;-75
2022/04/20 02:16:54;;;;;;;11.52;5.88;;;7.90;99.90;;;;;;4863485;29;20068;-75
2022/04/20 02:19:19;;;;;;;12.50;6.50;;;7.90;99.90;;;;;;4880123;29;20124;-75
2022/04/20 02:21:45;;;;;;;10.07;5.78;;;7.80;99.90;;;;;;4863206;29;20048;-75
2022/04/20 02:24:11;;;;;;;11.88;5.90;;;7.80;99.90;;;;;;4863188;29;20052;-75
2022/04/20 02:26:36;;;;;;;11.50;5.53;;;7.80;99.90;;;;;;4863018;29;20045;-75
2022/04/20 02:29:03;;;;;;;10.63;5.40;;;7.80;99.90;;;;;;4879871;29;20041;-75
2022/04/20 02:31:28;;;;;;;12.73;5.50;;;7.70;99.90;;;;;;4879751;29;20354;-75
2022/04/20 02:33:54;;;;;;;11.88;5.65;;;7.70;99.90;;;;;;4863255;29;20606;-75
2022/04/20 02:36:20;;;;;;;11.68;6.47;;;7.80;99.90;;;;;;4879683;29;20049;-75
2022/04/20 02:38:45;;;;;;;13.98;5.82;;;7.70;99.90;;;;;;4879695;29;20052;-75
2022/04/20 02:41:11;;;;;;;11.27;5.60;;;7.70;99.90;;;;;;4879727;29;20052;-75
2022/04/20 02:43:37;;;;;;;10.43;5.97;;;7.70;99.90;;;;;;4879304;29;20056;-75
2022/04/20 02:46:03;;;;;;;10.30;5.60;;;7.70;99.90;;;;;;4879534;29;20085;-75
2022/04/20 02:48:28;;;;;;;13.40;6.15;;;7.70;99.90;;;;;;4879631;29;20119;-75
2022/04/20 02:50:54;;;;;;;9.68;5.10;;;7.70;99.90;;;;;;4862939;29;20164;-75
2022/04/20 02:53:20;;;;;;;12.30;5.68;;;7.70;99.90;;;;;;4863128;29;20132;-75
2022/04/20 02:55:45;;;;;;;12.88;5.90;;;7.70;99.90;;;;;;4879590;29;20485;-75
2022/04/20 02:58:11;;;;;;;13.27;5.88;;;7.70;99.90;;;;;;4862870;29;20053;-75
2022/04/20 03:00:37;;;;;;;11.68;6.20;;;7.60;99.90;;;;;;4879580;29;20104;-75
2022/04/20 03:03:03;;;;;;;11.75;5.93;;;7.60;99.90;;;;;;4879569;29;20115;-75
2022/04/20 03:05:28;;;;;;;10.50;5.68;;;7.60;99.90;;;;;;4879464;29;20088;-75
2022/04/20 03:07:54;;;;;;;15.00;6.57;;;7.60;99.90;;;;;;4879565;29;20092;-75
2022/04/20 03:10:19;;;;;;;10.15;5.72;;;7.60;99.90;;;;;;4881341;29;20043;-75
2022/04/20 03:12:45;;;;;;;14.95;6.60;;;7.60;99.90;;;;;;4883531;29;20426;-75
2022/04/20 03:15:11;;;;;;;14.25;6.20;;;7.60;99.90;;;;;;4883104;29;20353;-75
2022/04/20 03:17:36;;;;;;;12.35;6.10;;;7.60;99.90;;;;;;4883013;29;20101;-75
2022/04/20 03:20:02;;;;;;;12.50;6.32;;;7.60;99.90;;;;;;4866252;29;20041;-75
2022/04/20 03:22:28;;;;;;;12.45;6.75;;;7.60;99.90;;;;;;4883087;29;20051;-75
2022/04/20 03:24:53;;;;;;;12.95;5.95;;;7.60;99.90;;;;;;4883064;29;20045;-75
2022/04/20 03:27:21;;;;;;;13.18;7.00;;;7.60;99.90;;;;;;4882905;29;20096;-75
2022/04/20 03:29:47;;;;;;;13.20;6.90;;;7.60;99.90;;;;;;4882936;29;20080;-75
2022/04/20 03:32:13;;;;;;;12.48;6.53;;;7.60;99.90;;;;;;4866015;29;20077;-75
2022/04/20 03:34:39;;;;;;;11.60;6.60;;;7.60;99.90;;;;;;4883159;29;20093;-75
2022/04/20 03:37:06;;;;;;;10.85;6.32;;;7.60;99.90;;;;;;4882879;29;20136;-75
2022/04/20 03:39:33;;;;;;;12.77;6.30;;;7.60;99.90;;;;;;4882697;29;20128;-75
2022/04/20 03:41:58;;;;;;;12.32;6.35;;;7.60;99.90;;;;;;4882711;29;20053;-75
2022/04/20 03:44:25;;;;;;;13.77;7.40;;;7.60;99.90;;;;;;4882370;29;20109;-75
2022/04/20 03:46:51;;;;;;;13.98;7.35;;;7.60;99.90;;;;;;4865623;29;20417;-75
2022/04/20 03:49:16;;;;;;;15.73;7.47;;;7.60;99.90;;;;;;4882496;29;20049;-75
2022/04/20 03:51:43;;;;;;;12.45;7.00;;;7.50;99.90;;;;;;4882582;29;20052;-75
2022/04/20 03:54:09;;;;;;;13.30;7.47;;;7.60;99.90;;;;;;4882665;29;20052;-75
2022/04/20 03:59:18;;;;;;;14.23;7.60;;;7.50;99.90;;;;;;4882456;29;20081;-75
2022/04/20 04:01:44;;;;;;;14.80;7.35;;;7.50;99.90;;;;;;4865508;29;20097;-75
2022/04/20 04:04:10;;;;;;;14.77;7.70;;;7.50;99.90;;;;;;4865816;29;20052;-74
2022/04/20 04:06:35;;;;;;;16.55;7.53;;;7.40;99.90;;;;;;4865475;29;20053;-75
2022/04/20 04:09:01;;;;;;;14.15;7.10;;;7.40;99.90;;;;;;4865478;29;20041;-75
2022/04/20 04:11:27;;;;;;;16.95;7.70;;;7.30;99.90;;;;;;4882020;29;20053;-75
2022/04/20 04:13:52;;;;;;;13.63;7.38;;;7.30;99.90;;;;;;4882064;29;20132;-75
2022/04/20 04:16:18;;;;;;;17.08;7.82;;;7.30;99.90;;;;;;4865426;29;20041;-75
2022/04/20 04:18:43;;;;;;;13.80;7.28;;;7.30;99.90;;;;;;4865115;29;20076;-75
2022/04/20 04:21:09;;;;;;;14.90;7.85;;;7.20;99.90;;;;;;4864419;29;20048;-75
2022/04/20 04:23:35;;;;;;;11.40;7.30;;;7.10;99.90;;;;;;4864073;29;20063;-75
2022/04/20 04:26:00;;;;;;;15.32;8.27;;;7.10;99.90;;;;;;4864108;29;20449;-75
2022/04/20 04:28:26;;;;;;;13.18;7.20;;;7.10;99.90;;;;;;4881571;29;20140;-75
2022/04/20 04:30:52;;;;;;;15.55;7.15;;;7.10;99.90;;;;;;4864854;29;20049;-75
2022/04/20 04:33:17;;;;;;;11.70;6.97;;;7.10;99.90;;;;;;4865430;29;20177;-74
2022/04/20 04:35:43;;;;;;;14.02;8.20;;;7.10;99.90;;;;;;4864819;29;20528;-75
2022/04/20 04:38:09;;;;;;;13.55;7.32;;;7.10;99.90;;;;;;4865078;29;20395;-75
2022/04/20 04:40:35;;;;;;;14.65;8.30;;;7.10;99.90;;;;;;4881371;29;20056;-75
2022/04/20 04:43:00;;;;;;;12.80;6.50;;;7.10;99.90;;;;;;4864710;29;20075;-75
2022/04/20 04:50:54;;;;;;;14.25;7.72;;;7.10;99.90;;;;;;4864506;29;20056;-74
2022/04/20 04:53:20;;;;;;;15.65;7.50;;;7.10;99.90;;;;;;4864512;29;20049;-74
2022/04/20 04:55:45;;;;;;;16.10;7.45;;;7.00;99.90;;;;;;4881347;29;20559;-74
2022/04/20 04:58:11;;;;;;;17.48;7.40;;;7.00;99.90;;;;;;4864726;29;20077;-74
2022/04/20 05:00:36;;;;;;;15.30;7.30;;;7.10;99.90;;;;;;4864936;29;20041;-74
2022/04/20 05:03:02;;;;;;;12.98;6.20;;;7.10;99.90;;;;;;4881264;29;20501;-74
2022/04/20 05:05:28;;;;;;;18.70;7.63;;;7.10;99.90;;;;;;4864634;29;20076;-74
2022/04/20 05:07:54;;;;;;;13.90;8.10;;;7.10;99.90;;;;;;4881386;29;20128;-74
2022/04/20 05:10:23;;;;;;;13.05;6.53;;;7.10;99.90;;;;;;4880992;29;20504;-74
2022/04/20 05:12:48;;;;;;;14.18;7.35;;;7.20;99.90;;;;;;4881156;29;20053;-74
2022/04/20 05:15:14;;;;;;;14.25;7.10;;;7.30;99.90;;;;;;4881083;29;20045;-74
2022/04/20 05:17:40;;;;;;;11.75;7.35;;;7.30;99.90;;;;;;4880823;29;20128;-74
2022/04/20 05:20:06;;;;;;;12.75;6.22;;;7.40;99.90;;;;;;4880905;29;20061;-74
2022/04/20 05:22:32;;;;;;;17.35;7.80;;;7.50;99.90;;;;;;4863914;29;20117;-74
2022/04/20 05:24:58;;;;;;;14.85;6.68;;;7.60;99.90;;;;;;4863996;29;20128;-74
2022/04/20 05:27:24;;;;;;;12.82;6.65;;;7.70;99.90;;;;;;4880735;29;20084;-74
2022/04/20 05:29:50;;;;;;;13.13;6.93;;;7.70;99.90;;;;;;4880536;29;20056;-74
2022/04/20 05:32:15;;;;;;;12.65;7.35;;;7.90;99.90;;;;;;4863511;29;20045;-74
2022/04/20 05:34:41;;;;;;;12.05;7.95;;;7.90;99.90;;;;;;4863864;29;20096;-74
2022/04/20 05:42:36;;;;;;;16.48;7.35;;;8.30;99.90;;;;;;4867473;29;20068;-74
2022/04/20 05:45:02;;;;;;;15.30;7.50;;;8.40;99.90;;;;;;4882284;29;20060;-74
2022/04/20 05:47:29;;;;;;;20.85;7.88;;;8.50;99.90;;;;;;4882310;29;20534;-74
2022/04/20 05:49:55;;;;;;;13.15;7.20;;;8.60;99.90;;;;;;4899151;29;20049;-74
2022/04/20 05:52:20;;;;;;;17.00;7.63;;;8.60;99.90;;;;;;4899235;29;20144;-74
2022/04/20 05:54:46;;;;;;;14.27;7.50;;;8.80;99.90;;;;;;4882086;29;20049;-74
2022/04/20 05:57:12;;;;;;;16.13;7.85;;;8.90;99.90;;;;;;4882413;29;20075;-75
2022/04/20 05:59:37;;;;;;;22.67;8.35;;;9.10;99.90;;;;;;4881991;29;20067;-74
2022/04/20 06:02:03;;;;;;;18.67;8.48;;;9.20;99.90;;;;;;4898849;29;20070;-74
2022/04/20 06:04:30;;;;;;;17.65;8.07;;;9.20;99.90;;;;;;4899069;29;20044;-74
2022/04/20 06:06:56;;;;;;;16.90;8.02;;;9.30;99.90;;;;;;4898845;29;20053;-74
2022/04/20 06:09:21;;;;;;;15.10;8.00;;;9.50;99.90;;;;;;4881953;29;20044;-74
2022/04/20 06:11:48;;;;;;;16.92;8.88;;;9.60;99.90;;;;;;4898707;29;20060;-74
2022/04/20 06:14:13;;;;;;;14.30;7.85;;;9.70;99.90;;;;;;4898582;29;20397;-74
2022/04/20 06:16:39;;;;;;;16.60;7.45;;;9.80;99.90;;;;;;4882115;29;20508;-74
2022/04/20 06:19:05;;;;;;;16.70;8.18;;;10.00;99.90;;;;;;4899116;29;20045;-74
2022/04/20 06:21:30;;;;;;;17.35;8.45;;;10.10;99.90;;;;;;4898815;29;20068;-74
2022/04/20 06:23:56;;;;;;;17.25;8.57;;;10.00;99.90;;;;;;4881717;29;20044;-74
2022/04/20 06:26:22;;;;;;;16.55;8.65;;;10.00;99.90;;;;;;4881824;29;20053;-75
2022/04/20 06:28:48;;;;;;;16.17;8.93;;;10.20;99.90;;;;;;4881614;29;20044;-74
2022/04/20 06:31:13;;;;;;;15.65;9.30;;;10.00;99.90;;;;;;4898620;29;20481;-74
2022/04/20 06:33:39;;;;;;;16.27;7.90;;;10.10;99.90;;;;;;4881960;29;20050;-74
2022/04/20 06:36:04;;;;;;;13.88;7.80;;;10.20;99.90;;;;;;4898487;29;20048;-75
2022/04/20 06:38:30;;;;;;;17.92;8.30;;;10.20;99.90;;;;;;4881685;29;20079;-75
2022/04/20 06:40:58;;;;;;;18.20;9.25;;;10.30;99.90;;;;;;4881411;29;20576;-75
2022/04/20 06:43:23;;;;;;;15.68;8.75;;;10.10;99.90;;;;;;4898015;29;20063;-75
2022/04/20 06:45:49;;;;;;;16.33;8.80;;;10.30;99.90;;;;;;4898449;29;20052;-74
2022/04/20 06:48:15;;;;;;;17.55;8.50;;;10.20;99.90;;;;;;4881556;29;20057;-75
2022/04/20 06:50:41;;;;;;;16.17;7.63;;;10.30;99.90;;;;;;4881457;29;20516;-75
2022/04/20 06:58:35;;;;;;;15.48;7.72;;;10.60;99.90;;;;;;4879023;29;20063;-74
2022/04/20 07:01:05;;;;;;;11.95;7.72;;;10.90;99.90;;;;;;4888831;29;20053;-75
2022/04/20 07:03:31;;;;;;;15.80;7.40;;;11.10;99.90;;;;;;4862932;29;20060;-74
2022/04/20 07:05:58;;;;;;;14.38;7.15;;;11.30;99.90;;;;;;4879180;29;20053;-74
2022/04/20 07:08:24;;;;;;;15.00;6.90;;;11.30;99.90;;;;;;4879293;29;20109;-74
2022/04/20 07:10:50;;;;;;;13.70;7.53;;;11.40;99.90;;;;;;4879284;29;20041;-74
2022/04/20 07:13:16;;;;;;;13.02;7.07;;;11.40;99.90;;;;;;4878959;29;20176;-74
2022/04/20 07:15:42;;;;;;;12.73;6.90;;;11.60;99.90;;;;;;4862376;29;20049;-74
2022/04/20 07:18:08;;;;;;;11.38;6.60;;;11.70;99.90;;;;;;4862227;29;20048;-73
2022/04/20 07:20:34;;;;;;;12.90;6.75;;;11.70;99.90;;;;;;4879177;29;20104;-74
2022/04/20 07:23:00;;;;;;;14.00;7.00;;;11.70;99.90;;;;;;4862393;29;20135;-74
2022/04/20 07:25:25;;;;;;;12.70;6.38;;;11.90;99.90;;;;;;4862429;29;20053;-74
2022/04/20 07:27:51;;;;;;;14.77;6.72;;;11.90;99.90;;;;;;4879182;29;20398;-75
2022/04/20 07:30:17;;;;;;;17.13;7.47;;;11.90;99.90;;;;;;4862136;29;20088;-74
2022/04/20 07:32:44;;;;;;;14.35;6.47;;;12.00;99.90;;;;;;4879052;29;20132;-74
2022/04/20 07:35:10;;;;;;;15.35;6.85;;;12.10;99.90;;;;;;4862214;29;20049;-74
2022/04/20 07:37:35;;;;;;;11.75;7.18;;;12.20;99.90;;;;;;4862192;29;20059;-74
2022/04/20 07:40:01;;;;;;;13.70;7.30;;;12.10;99.90;;;;;;4862039;29;20057;-74
2022/04/20 07:42:27;;;;;;;13.18;7.10;;;12.20;99.90;;;;;;4878516;29;20822;-74
2022/04/20 07:44:56;;;;;;;12.35;7.55;;;12.30;99.90;;;;;;4862075;29;20494;-74
2022/04/20 07:47:24;;;;;;;14.45;7.22;;;12.30;99.90;;;;;;4863615;29;20131;-74
2022/04/20 07:52:39;;;;;;;12.85;6.75;;;12.40;99.90;;;;;;4897476;29;20096;-74
2022/04/20 07:55:12;;;;;;;11.70;5.85;;;12.60;99.90;;;;;;4897494;29;20041;-74
2022/04/20 07:57:38;;;;;;;11.45;6.65;;;12.80;99.90;;;;;;4899679;29;20052;-74
2022/04/20 08:00:06;;;;;;;12.25;6.43;;;12.90;99.90;;;;;;4900900;29;20041;-74
2022/04/20 08:02:33;;;;;;;12.75;6.90;;;13.10;99.90;;;;;;4899235;29;20056;-74
2022/04/20 08:04:58;;;;;;;13.13;6.90;;;13.00;99.90;;;;;;4899307;29;20409;-74
2022/04/20 08:07:24;;;;;;;14.02;6.93;;;13.00;99.90;;;;;;4899169;29;20493;-74
2022/04/20 08:09:50;;;;;;;9.55;5.88;;;12.50;99.90;;;;;;4899462;29;20127;-74
2022/04/20 08:12:16;;;;;;;12.13;6.95;;;12.50;99.90;;;;;;4900715;29;20410;-74
2022/04/20 08:14:41;;;;;;;11.52;6.75;;;13.00;99.90;;;;;;4899190;29;20525;-74
2022/04/20 08:17:07;;;;;;;10.40;5.55;;;13.00;99.90;;;;;;4900224;29;20073;-74
2022/04/20 08:19:33;;;;;;;12.35;6.38;;;13.10;99.90;;;;;;4888575;29;20071;-74
2022/04/20 08:21:58;;;;;;;13.30;6.43;;;13.10;99.90;;;;;;4900482;29;20401;-74
2022/04/20 08:24:24;;;;;;;12.52;6.53;;;13.20;99.90;;;;;;4900451;29;20049;-74
2022/04/20 08:26:50;;;;;;;13.73;7.32;;;13.30;99.90;;;;;;4900263;29;20048;-74
2022/04/20 08:29:16;;;;;;;16.90;7.25;;;13.00;99.90;;;;;;4898984;29;20187;-74
2022/04/20 08:31:41;;;;;;;13.43;7.10;;;13.10;99.90;;;;;;4900023;29;20485;-74
2022/04/20 08:34:07;;;;;;;11.18;7.35;;;13.10;99.90;;;;;;4900067;29;20500;-74
2022/04/20 08:36:33;;;;;;;10.10;6.18;;;13.10;99.90;;;;;;4883215;29;20045;-74
2022/04/20 08:38:59;;;;;;;10.35;6.13;;;13.30;99.90;;;;;;4883197;29;20497;-74
2022/04/20 08:41:25;;;;;;;13.10;7.32;;;13.50;99.90;;;;;;4899996;29;20053;-74
2022/04/20 08:43:52;;;;;;;13.10;5.80;;;13.70;99.90;;;;;;4899711;29;20074;-74
2022/04/20 08:46:18;;;;;;;14.48;6.70;;;13.40;99.90;;;;;;4883153;29;20101;-74
2022/04/20 08:48:44;;;;;;;12.60;6.38;;;13.50;99.90;;;;;;4898478;29;20124;-74
2022/04/20 08:51:10;;;;;;;12.57;6.38;;;13.60;99.90;;;;;;4891783;29;20120;-74
2022/04/20 08:53:36;;;;;;;12.35;6.53;;;13.70;99.90;;;;;;4876654;29;20048;-74
2022/04/20 08:58:49;;;;;;;10.52;6.55;;;13.80;99.90;;;;;;4895432;29;20144;-75
2022/04/20 09:01:16;;;;;;;11.60;6.45;;;13.60;99.90;;;;;;4899910;29;20123;-75
2022/04/20 09:03:48;;;;;;;10.95;6.55;;;13.70;99.90;;;;;;4899216;29;20048;-75
2022/04/20 09:06:15;;;;;;;10.43;6.07;;;13.90;99.90;;;;;;4881426;29;20114;-75
2022/04/20 09:08:41;;;;;;;11.88;6.72;;;14.10;99.90;;;;;;4895435;29;20489;-75
2022/04/20 09:11:07;;;;;;;11.18;6.88;;;14.10;99.90;;;;;;4899634;29;20115;-75
2022/04/20 09:13:35;;;;;;;11.95;6.75;;;14.00;99.90;;;;;;4899566;29;20464;-75
2022/04/20 09:16:09;;;;;;;9.38;6.43;;;14.10;99.90;;;;;;4897952;29;20132;-74
2022/04/20 09:18:35;;;;;;;16.30;6.13;;;14.30;99.90;;;;;;4882682;29;20123;-74
2022/04/20 09:21:12;;;;;;;10.57;6.50;;;14.20;99.90;;;;;;4899243;29;20055;-78
2022/04/20 09:23:38;;;;;;;11.73;6.70;;;14.40;99.90;;;;;;4896991;29;20056;-74
2022/04/20 09:26:12;;;;;;;10.15;5.55;;;14.20;99.30;;;;;;4897674;29;20056;-74
2022/04/20 09:28:40;;;;;;;12.38;6.10;;;14.50;99.90;;;;;;4897982;29;20059;-74
2022/04/20 09:31:07;;;;;;;10.23;6.53;;;14.80;99.90;;;;;;4899129;29;20084;-75
2022/04/20 09:33:44;;;;;;;9.35;6.10;;;14.60;99.10;;;;;;4882505;29;20053;-75
2022/04/20 09:36:11;;;;;;;12.50;6.43;;;14.60;99.90;;;;;;4897562;29;20401;-75
2022/04/20 09:38:39;;;;;;;9.88;6.15;;;14.80;99.90;;;;;;4897710;29;20087;-75
2022/04/20 09:41:09;;;;;;;12.38;7.15;;;14.90;99.90;;;;;;4882146;29;20053;-75
2022/04/20 09:43:36;;;;;;;12.77;7.10;;;14.80;99.90;;;;;;4897269;29;20092;-75
2022/04/20 09:46:04;;;;;;;11.27;6.43;;;14.90;99.90;;;;;;4897536;29;20040;-75
2022/04/20 09:51:19;;;;;;;11.20;6.53;;;14.60;99.90;;;;;;4898867;29;20056;-75
2022/04/20 09:53:44;;;;;;;12.32;7.03;;;14.50;99.90;;;;;;4897431;29;20127;-75
2022/04/20 09:56:29;;;;;;;9.70;5.38;;;14.30;99.90;;;;;;4882026;29;20128;-75
2022/04/20 09:58:59;;;;;;;12.60;6.00;;;14.70;99.90;;;;;;4881867;29;20048;-75
2022/04/20 10:01:34;;;;;;;11.75;5.30;;;14.90;99.90;;;;;;4897463;29;20195;-75
2022/04/20 10:04:02;;;;;;;10.15;5.60;;;14.60;99.00;;;;;;4881624;29;20056;-75
2022/04/20 10:06:28;;;;;;;8.02;4.82;;;14.50;97.60;;;;;;4897182;29;20054;-75
2022/04/20 10:08:54;;;;;;;12.60;5.00;;;14.80;99.40;;;;;;4898727;29;20051;-75
2022/04/20 10:11:22;;;;;;;7.88;4.43;;;14.80;99.90;;;;;;4898460;29;20048;-75
2022/04/20 10:16:05;;;;;;;9.23;4.30;;;15.00;99.00;;;;;;4897160;29;20052;-75
2022/04/20 10:16:39;;;;;;;7.38;4.57;;;15.00;97.90;;;;;;4881751;29;20064;-74
2022/04/20 10:19:08;;;;;;;8.95;4.35;;;15.40;97.40;;;;;;4898110;29;20135;-75
2022/04/20 10:21:50;;;;;;;8.07;4.78;;;15.20;96.40;;;;;;4898429;29;20040;-75
2022/04/20 10:24:19;;;;;;;9.85;4.43;;;14.80;93.40;;;;;;4881545;29;20048;-76
2022/04/20 10:26:47;;;;;;;7.22;4.53;;;14.80;87.70;;;;;;4896783;29;20124;-76
2022/04/20 10:29:25;;;;;;;10.82;5.13;;;14.60;90.80;;;;;;4898510;29;20044;-76
2022/04/20 10:31:50;;;;;;;8.05;5.20;;;14.80;87.80;;;;;;4898035;29;20481;-76
2022/04/20 10:34:18;;;;;;;9.32;5.78;;;14.70;90.90;;;;;;4896961;29;20052;-76
2022/04/20 10:37:02;;;;;;;8.75;5.20;;;14.60;91.00;;;;;;4896734;29;20408;-76
2022/04/20 10:39:34;;;;;;;10.15;5.47;;;14.90;94.30;;;;;;4896723;29;20056;-76
2022/04/20 10:42:12;;;;;;;8.88;5.50;;;15.00;96.00;;;;;;4896648;29;20041;-76
2022/04/20 10:45:04;;;;;;;9.93;5.47;;;15.00;94.20;;;;;;4896651;29;20068;-75
2022/04/20 10:47:42;;;;;;;11.05;5.20;;;15.30;95.10;;;;;;4870458;29;20483;-75
2022/04/20 10:50:25;;;;;;;9.15;5.57;;;15.10;92.50;;;;;;4878670;29;20496;-76
2022/04/20 10:52:52;;;;;;;10.60;5.43;;;15.20;93.50;;;;;;4897659;29;20044;-76
2022/04/20 10:55:44;;;;;;;9.10;4.95;;;15.40;93.90;;;;;;4897834;29;20041;-75
2022/04/20 10:58:21;;;;;;;9.15;5.00;;;15.30;95.30;;;;;;4881104;29;20056;-75
2022/04/20 11:00:46;;;;;;;11.32;4.55;;;15.50;99.90;;;;;;4897950;29;20618;-76
2022/04/20 11:03:12;;;;;;;7.40;4.10;;;15.70;99.90;;;;;;4898112;29;20127;-75
2022/04/20 11:05:49;;;;;;;15.05;5.40;;;15.70;99.90;;;;;;4897731;29;20135;-76
2022/04/20 11:08:16;;;;;;;9.93;4.50;;;15.10;99.90;;;;;;4880915;29;20127;-75
2022/04/20 11:10:43;;;;;;;10.63;4.75;;;15.10;99.90;;;;;;4881331;29;20130;-76
2022/04/20 11:19:07;;;;;;;15.38;4.78;;;15.30;99.90;;;;;;4880985;29;20568;-74
2022/04/20 11:21:34;;;;;;;8.60;4.65;;;15.50;99.90;;;;;;4881215;29;20413;-74
2022/04/20 11:24:05;;;;;;;10.13;4.50;;;15.60;99.90;;;;;;4897044;29;20049;-74
2022/04/20 11:26:38;;;;;;;10.68;4.65;;;15.30;99.90;;;;;;4880861;29;20080;-74
2022/04/20 11:29:16;;;;;;;12.40;4.72;;;15.40;99.90;;;;;;4881183;29;20044;-74
2022/04/20 11:31:57;;;;;;;8.15;4.18;;;15.40;99.90;;;;;;4883113;29;20505;-75
2022/04/20 11:34:22;;;;;;;9.55;4.47;;;15.60;99.90;;;;;;4884425;29;20052;-75
2022/04/20 11:36:51;;;;;;;7.93;4.40;;;15.80;99.90;;;;;;4901584;29;20053;-75
2022/04/20 11:39:19;;;;;;;9.50;4.28;;;16.10;99.90;;;;;;4884679;29;20044;-75
2022/04/20 11:41:46;;;;;;;11.07;4.88;;;16.10;99.90;;;;;;4881883;29;20130;-75
2022/04/20 11:44:24;;;;;;;9.60;5.00;;;16.00;99.90;;;;;;4868168;29;20059;-75
2022/04/20 11:46:51;;;;;;;8.55;4.20;;;15.80;99.90;;;;;;4865828;29;20497;-75
2022/04/20 11:49:18;;;;;;;10.43;4.57;;;16.00;99.90;;;;;;4865634;29;20051;-75
2022/04/20 11:51:54;;;;;;;10.48;3.88;;;16.00;99.90;;;;;;4882543;29;20053;-75
2022/04/20 11:54:21;;;;;;;12.43;4.80;;;15.60;99.90;;;;;;4897106;29;20076;-74
2022/04/20 11:56:47;;;;;;;10.60;4.60;;;15.80;99.90;;;;;;4886109;29;20127;-75
2022/04/20 11:59:13;;;;;;;9.27;4.05;;;16.00;99.90;;;;;;4876801;29;20493;-75
2022/04/20 12:01:39;;;;;;;8.43;4.03;;;15.60;99.90;;;;;;4878634;29;20099;-75
2022/04/20 12:04:16;;;;;;;7.80;3.63;;;15.50;99.90;;;;;;4900239;29;20052;-75
2022/04/20 12:06:51;;;;;;;10.15;4.50;;;15.30;99.90;;;;;;4900638;29;20048;-75
2022/04/20 12:09:31;;;;;;;8.32;3.83;;;15.30;99.90;;;;;;4884105;29;20052;-75
2022/04/20 12:11:59;;;;;;;9.00;4.10;;;15.70;99.90;;;;;;4899672;29;20378;-75
2022/04/20 12:14:34;;;;;;;11.68;4.05;;;15.80;99.90;;;;;;4899614;29;20056;-75
2022/04/20 12:17:05;;;;;;;9.02;4.20;;;16.00;99.90;;;;;;4883947;29;20049;-75
2022/04/20 12:19:31;;;;;;;12.80;4.47;;;15.40;99.90;;;;;;4899649;29;20136;-75
2022/04/20 12:22:11;;;;;;;15.23;4.10;;;15.80;99.90;;;;;;4899188;29;20048;-75
2022/04/20 12:24:38;;;;;;;19.35;4.93;;;15.50;99.90;;;;;;4883245;29;20052;-75
2022/04/20 12:27:15;;;;;;;13.73;4.50;;;15.70;99.90;;;;;;4898252;29;20445;-76
2022/04/20 12:29:40;;;;;;;11.90;4.63;;;15.80;99.90;;;;;;4898161;29;20052;-77
2022/04/20 12:32:07;;;;;;;14.48;4.10;;;15.70;99.90;;;;;;4900503;29;20051;-75
2022/04/20 12:34:32;;;;;;;14.57;3.92;;;15.50;99.90;;;;;;4900644;29;20048;-75
2022/04/20 12:37:05;;;;;;;19.48;4.68;;;15.30;99.90;;;;;;4883288;29;20052;-75
2022/04/20 12:39:42;;;;;;;9.23;3.88;;;14.90;99.90;;;;;;4900145;29;20400;-75
2022/04/20 12:42:09;;;;;;;12.15;3.33;;;15.10;99.90;;;;;;4899089;29;20493;-75
2022/04/20 12:44:52;;;;;;;11.07;3.50;;;15.10;99.90;;;;;;4898826;29;20060;-75
2022/04/20 12:47:18;;;;;;;8.13;3.47;;;14.70;99.90;;;;;;4900251;29;20119;-75
2022/04/20 12:49:48;;;;;;;10.75;3.60;;;14.50;99.90;;;;;;4882189;29;20056;-75
2022/04/20 12:52:18;;;;;;;6.60;3.10;;;14.50;99.40;;;;;;4898908;29;20587;-76
2022/04/20 12:54:58;;;;;;;7.18;3.10;;;14.40;99.90;;;;;;4898783;29;20048;-74
2022/04/20 13:03:16;;;;;;;10.38;3.20;;;14.60;99.90;;;;;;4882969;29;20064;-74
2022/04/20 13:05:42;;;;;;;;;;;14.60;99.90;;;;;;4893158;29;20132;-74
2022/04/20 13:08:09;;;;;;;10.27;2.90;;;14.50;99.90;;;;;;4899537;29;20388;-75
2022/04/20 13:10:39;;;;;;;8.07;3.08;;;14.50;99.90;;;;;;4883170;29;20097;-75
2022/04/20 13:13:05;;;;;;;7.05;3.28;;;14.60;99.90;;;;;;4883065;29;20104;-75
2022/04/20 13:15:31;;;;;;;7.93;3.22;;;14.50;99.90;;;;;;4882753;29;20048;-76
2022/04/20 13:17:57;;;;;;;7.07;2.92;;;14.40;99.90;;;;;;4882938;29;20165;-75
2022/04/20 13:20:25;;;;;;;7.45;3.28;;;14.20;99.90;;;;;;4882939;29;20056;-74
2022/04/20 13:22:52;;;;;;;9.70;4.00;;;14.40;99.90;;;;;;4882831;29;20122;-74
2022/04/20 13:28:02;;;;;;;9.75;3.45;;;14.30;99.90;;;;;;4882542;29;20515;-75